createdAt,value
2018-08-22T00:00:18.849Z,74.76
2018-08-22T00:02:48.458Z,74.93
2018-08-22T00:05:17.825Z,75.71
2018-08-22T00:07:47.223Z,75.98
2018-08-22T00:10:16.626Z,75.59
2018-08-22T00:12:45.990Z,75.92
2018-08-22T00:15:15.391Z,76.67
2018-08-22T00:17:44.772Z,77.31
2018-08-22T00:20:14.176Z,77.76
2018-08-22T00:22:43.558Z,76.64
2018-08-22T00:25:12.938Z,77.75
2018-08-22T00:27:42.728Z,77.58
2018-08-22T00:30:12.111Z,77.31
2018-08-22T00:32:41.481Z,76.93
2018-08-22T00:35:10.878Z,76.58
2018-08-22T00:37:40.250Z,76.58
2018-08-22T00:40:09.602Z,77.30
2018-08-22T00:42:38.989Z,77.51
2018-08-22T00:45:08.339Z,77.99
2018-08-22T00:47:37.694Z,78.32
2018-08-22T00:50:07.089Z,77.71
2018-08-22T00:52:36.521Z,77.59
2018-08-22T00:55:05.927Z,77.92
2018-08-22T00:57:35.313Z,77.35
2018-08-22T01:00:04.697Z,76.89
2018-08-22T01:02:34.066Z,77.91
2018-08-22T01:05:03.455Z,77.72
2018-08-22T01:07:32.824Z,76.97
2018-08-22T01:10:02.185Z,76.67
2018-08-22T01:12:31.638Z,77.27
2018-08-22T01:15:01.000Z,76.75
2018-08-22T01:17:30.375Z,77.27
2018-08-22T01:19:59.742Z,77.90
2018-08-22T01:22:29.106Z,78.17
2018-08-22T01:24:58.457Z,77.05
2018-08-22T01:27:27.820Z,76.80
2018-08-22T01:29:57.234Z,77.12
2018-08-22T01:32:26.628Z,77.68
2018-08-22T01:34:55.973Z,77.19
2018-08-22T01:37:25.365Z,78.53
2018-08-22T01:39:54.752Z,78.13
2018-08-22T01:42:24.118Z,78.80
2018-08-22T01:44:53.485Z,78.35
2018-08-22T01:47:22.852Z,79.02
2018-08-22T01:49:52.235Z,78.76
2018-08-22T01:52:21.577Z,77.46
2018-08-22T01:54:50.954Z,78.56
2018-08-22T01:57:20.326Z,77.89
2018-08-22T01:59:49.721Z,78.48
2018-08-22T02:02:19.078Z,78.23
2018-08-22T02:04:48.461Z,78.89
2018-08-22T02:07:17.826Z,78.87
2018-08-22T02:09:47.209Z,78.92
2018-08-22T02:12:16.574Z,78.55
2018-08-22T02:14:45.934Z,78.25
2018-08-22T02:17:15.317Z,79.03
2018-08-22T02:19:44.678Z,78.32
2018-08-22T02:22:14.039Z,77.60
2018-08-22T02:24:43.406Z,76.55
2018-08-22T02:27:12.762Z,76.49
2018-08-22T02:29:42.117Z,77.39
2018-08-22T02:32:11.486Z,76.71
2018-08-22T02:34:40.841Z,77.06
2018-08-22T02:37:10.235Z,77.48
2018-08-22T02:39:39.638Z,77.43
2018-08-22T02:42:09.034Z,78.47
2018-08-22T02:44:38.470Z,78.07
2018-08-22T02:47:07.930Z,78.79
2018-08-22T02:49:37.295Z,78.23
2018-08-22T02:52:06.739Z,78.43
2018-08-22T02:54:36.141Z,78.57
2018-08-22T02:57:05.581Z,79.46
2018-08-22T02:59:34.954Z,79.74
2018-08-22T03:02:04.339Z,79.79
2018-08-22T03:04:33.702Z,79.13
2018-08-22T03:07:03.110Z,79.87
2018-08-22T03:09:32.477Z,79.64
2018-08-22T03:12:01.866Z,80.23
2018-08-22T03:14:31.331Z,80.11
2018-08-22T03:17:00.706Z,80.63
2018-08-22T03:19:30.075Z,80.75
2018-08-22T03:27:01.894Z,78.50
2018-08-22T03:29:32.194Z,79.29
2018-08-22T03:32:01.556Z,78.89
2018-08-22T03:34:30.922Z,79.54
2018-08-22T03:37:00.294Z,78.51
2018-08-22T03:39:29.698Z,78.79
2018-08-22T03:41:59.107Z,78.63
2018-08-22T03:44:28.465Z,78.85
2018-08-22T03:46:57.837Z,79.27
2018-08-22T03:49:27.194Z,78.68
2018-08-22T03:51:56.579Z,80.38
2018-08-22T03:54:25.922Z,79.90
2018-08-22T03:56:55.282Z,80.16
2018-08-22T03:59:24.683Z,80.47
2018-08-22T04:01:54.042Z,80.54
2018-08-22T04:04:23.393Z,80.20
2018-08-22T04:06:52.770Z,81.17
2018-08-22T04:09:22.134Z,81.87
2018-08-22T04:11:51.494Z,82.37
2018-08-22T04:14:20.862Z,81.15
2018-08-22T04:16:50.237Z,81.85
2018-08-22T04:19:19.603Z,82.54
2018-08-22T04:21:48.944Z,83.01
2018-08-22T04:24:18.317Z,83.22
2018-08-22T04:26:47.665Z,83.40
2018-08-22T04:29:17.001Z,82.77
2018-08-22T04:31:46.373Z,82.94
2018-08-22T04:34:15.869Z,82.25
2018-08-22T04:36:45.223Z,82.66
2018-08-22T04:39:14.654Z,82.37
2018-08-22T04:41:44.011Z,83.78
2018-08-22T04:44:13.369Z,83.78
2018-08-22T04:46:42.735Z,82.59
2018-08-22T04:49:12.090Z,83.15
2018-08-22T04:51:41.429Z,82.87
2018-08-22T04:54:10.805Z,83.07
2018-08-22T04:56:40.155Z,82.02
2018-08-22T04:59:09.514Z,82.23
2018-08-22T05:01:38.901Z,82.33
2018-08-22T05:04:08.253Z,82.65
2018-08-22T05:06:37.658Z,82.86
2018-08-22T05:09:08.739Z,82.57
2018-08-22T05:11:38.941Z,82.20
2018-08-22T05:14:08.349Z,83.01
2018-08-22T05:16:37.715Z,82.17
2018-08-22T05:19:07.154Z,82.49
2018-08-22T05:21:36.631Z,82.87
2018-08-22T05:24:06.054Z,82.12
2018-08-22T05:26:35.409Z,82.27
2018-08-22T05:29:04.807Z,81.67
2018-08-22T05:31:34.178Z,81.00
2018-08-22T05:34:03.562Z,81.77
2018-08-22T05:36:32.970Z,81.37
2018-08-22T05:39:02.421Z,81.81
2018-08-22T05:41:31.798Z,80.92
2018-08-22T05:44:01.145Z,80.70
2018-08-22T05:46:30.503Z,81.14
2018-08-22T05:48:59.878Z,80.54
2018-08-22T05:51:29.304Z,80.49
2018-08-22T05:53:58.683Z,80.38
2018-08-22T05:56:28.065Z,81.20
2018-08-22T05:58:57.422Z,80.56
2018-08-22T06:01:26.835Z,80.71
2018-08-22T06:03:56.201Z,79.22
2018-08-22T06:06:25.575Z,79.92
2018-08-22T06:08:54.966Z,79.77
2018-08-22T06:11:25.025Z,79.11
2018-08-22T06:13:54.520Z,79.86
2018-08-22T06:16:23.919Z,79.66
2018-08-22T06:18:53.294Z,78.56
2018-08-22T06:21:22.668Z,78.59
2018-08-22T06:23:52.116Z,78.29
2018-08-22T06:26:21.618Z,78.52
2018-08-22T06:28:50.995Z,78.84
2018-08-22T06:31:20.368Z,77.61
2018-08-22T06:33:49.762Z,77.98
2018-08-22T06:36:19.176Z,77.10
2018-08-22T06:38:48.551Z,76.44
2018-08-22T06:41:18.012Z,75.75
2018-08-22T06:43:48.054Z,75.14
2018-08-22T06:46:17.459Z,75.75
2018-08-22T06:48:46.834Z,74.89
2018-08-22T06:51:16.246Z,74.07
2018-08-22T06:53:45.683Z,73.09
2018-08-22T06:56:15.077Z,72.58
2018-08-22T06:58:44.499Z,71.37
2018-08-22T07:01:13.874Z,70.93
2018-08-22T07:03:43.431Z,70.65
2018-08-22T07:06:12.792Z,69.73
2018-08-22T07:08:42.228Z,69.67
2018-08-22T07:11:11.692Z,68.75
2018-08-22T07:13:41.060Z,67.75
2018-08-22T07:16:10.459Z,67.18
2018-08-22T07:18:39.842Z,67.00
2018-08-22T07:21:09.203Z,65.89
2018-08-22T07:23:38.598Z,66.16
2018-08-22T07:26:07.974Z,64.90
2018-08-22T07:28:37.366Z,63.34
2018-08-22T07:31:06.866Z,63.09
2018-08-22T07:33:36.345Z,64.11
2018-08-22T07:36:05.787Z,64.41
2018-08-22T07:43:38.907Z,62.85
2018-08-22T07:46:08.344Z,63.21
2018-08-22T07:48:37.802Z,63.66
2018-08-22T07:51:07.190Z,63.33
2018-08-22T07:53:36.607Z,63.05
2018-08-22T07:56:05.978Z,63.10
2018-08-22T07:58:35.398Z,62.03
2018-08-22T08:01:04.816Z,61.99
2018-08-22T08:03:34.234Z,63.35
2018-08-22T08:06:03.673Z,61.87
2018-08-22T08:08:33.072Z,62.32
2018-08-22T08:11:02.500Z,61.74
2018-08-22T08:13:31.894Z,62.13
2018-08-22T08:16:01.294Z,61.90
2018-08-22T08:18:30.715Z,61.91
2018-08-22T08:21:00.105Z,61.91
2018-08-22T08:23:29.486Z,61.72
2018-08-22T08:25:58.897Z,61.63
2018-08-22T08:28:28.294Z,61.53
2018-08-22T08:30:57.716Z,59.97
2018-08-22T08:33:27.150Z,59.85
2018-08-22T08:35:56.659Z,59.28
2018-08-22T08:38:26.032Z,59.95
2018-08-22T08:40:55.518Z,57.70
2018-08-22T08:43:25.092Z,58.68
2018-08-22T08:45:55.343Z,57.93
2018-08-22T08:48:24.725Z,58.01
2018-08-22T08:50:54.378Z,58.35
2018-08-22T08:53:23.833Z,58.59
2018-08-22T08:55:53.437Z,57.83
2018-08-22T08:58:22.820Z,58.91
2018-08-22T09:00:52.480Z,59.03
2018-08-22T09:03:22.532Z,58.15
2018-08-22T09:05:52.024Z,56.59
2018-08-22T09:08:21.451Z,57.15
2018-08-22T09:10:50.864Z,56.85
2018-08-22T09:13:20.253Z,55.78
2018-08-22T09:15:49.649Z,56.97
2018-08-22T09:18:19.050Z,55.59
2018-08-22T09:20:48.462Z,56.01
2018-08-22T09:23:17.854Z,54.97
2018-08-22T09:25:47.347Z,56.01
2018-08-22T09:28:16.715Z,54.93
2018-08-22T09:30:46.121Z,54.94
2018-08-22T09:33:15.522Z,55.39
2018-08-22T09:35:44.934Z,53.86
2018-08-22T09:38:14.321Z,55.60
2018-08-22T09:40:43.730Z,53.14
2018-08-22T09:43:13.166Z,54.89
2018-08-22T09:45:42.571Z,54.08
2018-08-22T09:48:11.942Z,54.90
2018-08-22T09:50:41.385Z,54.52
2018-08-22T09:53:10.771Z,51.61
2018-08-22T09:55:40.169Z,52.04
2018-08-22T09:58:09.557Z,54.02
2018-08-22T10:00:44.282Z,53.59
2018-08-22T10:03:13.629Z,51.38
2018-08-22T10:05:43.002Z,52.10
2018-08-22T10:08:12.404Z,53.06
2018-08-22T10:10:41.790Z,51.24
2018-08-22T10:13:11.384Z,50.85
2018-08-22T10:15:40.842Z,51.09
2018-08-22T10:18:10.233Z,51.50
2018-08-22T10:20:39.601Z,51.22
2018-08-22T10:23:09.018Z,49.86
2018-08-22T10:25:38.446Z,51.18
2018-08-22T10:28:07.816Z,50.00
2018-08-22T10:30:37.210Z,50.27
2018-08-22T10:33:06.661Z,49.13
2018-08-22T10:35:36.059Z,47.74
2018-08-22T10:38:05.474Z,48.84
2018-08-22T10:40:34.867Z,49.58
2018-08-22T10:43:04.294Z,49.05
2018-08-22T10:45:33.674Z,48.16
2018-08-22T10:48:03.541Z,49.26
2018-08-22T10:50:32.890Z,48.75
2018-08-22T10:53:02.540Z,49.00
2018-08-22T10:55:31.989Z,48.21
2018-08-22T10:58:01.566Z,47.03
2018-08-22T11:00:31.042Z,47.25
2018-08-22T11:03:00.475Z,46.95
2018-08-22T11:05:29.870Z,46.74
2018-08-22T11:07:59.314Z,45.61
2018-08-22T11:10:28.689Z,45.93
2018-08-22T11:12:58.354Z,44.65
2018-08-22T11:15:28.262Z,46.23
2018-08-22T11:17:57.978Z,44.42
2018-08-22T11:20:29.226Z,45.81
2018-08-22T11:23:15.651Z,45.81
2018-08-22T11:26:02.230Z,45.93
2018-08-22T11:28:48.607Z,44.61
2018-08-22T11:31:35.211Z,43.86
2018-08-22T11:34:22.205Z,44.79
2018-08-22T11:37:00.776Z,43.23
2018-08-22T11:39:32.337Z,42.82
2018-08-22T11:42:01.927Z,43.91
2018-08-22T11:44:31.547Z,42.53
2018-08-22T11:47:01.267Z,42.57
2018-08-22T11:49:31.399Z,42.86
2018-08-22T11:52:00.978Z,42.86
2018-08-22T11:54:30.991Z,40.88
2018-08-22T11:57:00.818Z,40.61
2018-08-22T11:59:30.430Z,39.76
2018-08-22T12:01:59.948Z,39.66
2018-08-22T12:04:29.302Z,41.49
2018-08-22T12:06:58.687Z,42.11
2018-08-22T12:09:31.038Z,40.75
2018-08-22T12:12:00.425Z,42.83
2018-08-22T12:14:29.827Z,41.58
2018-08-22T12:16:59.222Z,40.89
2018-08-22T12:19:28.640Z,41.95
2018-08-22T12:21:58.039Z,41.90
2018-08-22T12:24:27.438Z,41.57
2018-08-22T12:26:56.842Z,42.96
2018-08-22T12:29:26.254Z,41.04
2018-08-22T12:31:55.654Z,42.11
2018-08-22T12:34:25.070Z,41.86
2018-08-22T12:36:54.486Z,41.18
2018-08-22T12:39:23.846Z,41.46
2018-08-22T12:41:53.225Z,41.33
2018-08-22T12:44:22.762Z,39.21
2018-08-22T12:46:52.117Z,38.41
2018-08-22T12:49:21.510Z,38.91
2018-08-22T12:51:50.910Z,40.28
2018-08-22T12:54:20.282Z,39.90
2018-08-22T12:56:49.660Z,40.34
2018-08-22T12:59:19.030Z,38.80
2018-08-22T13:01:48.765Z,40.62
2018-08-22T13:04:18.174Z,39.79
2018-08-22T13:06:47.544Z,37.92
2018-08-22T13:09:16.961Z,37.41
2018-08-22T13:11:46.373Z,37.10
2018-08-22T13:14:15.798Z,37.96
2018-08-22T13:16:45.222Z,36.94
2018-08-22T13:19:14.623Z,37.02
2018-08-22T13:21:43.998Z,35.25
2018-08-22T13:24:13.407Z,37.56
2018-08-22T13:26:42.811Z,34.63
2018-08-22T13:29:12.197Z,34.34
2018-08-22T13:31:41.650Z,34.66
2018-08-22T13:34:11.042Z,35.80
2018-08-22T13:36:40.441Z,36.08
2018-08-22T13:39:10.861Z,35.94
2018-08-22T13:41:40.222Z,35.85
2018-08-22T13:44:09.618Z,34.05
2018-08-22T13:46:39.007Z,34.21
2018-08-22T13:49:08.587Z,33.63
2018-08-22T13:51:37.987Z,31.98
2018-08-22T13:54:07.370Z,31.35
2018-08-22T13:56:36.781Z,28.23
2018-08-22T13:59:06.205Z,28.20
2018-08-22T14:01:35.605Z,27.03
2018-08-22T14:04:04.994Z,28.22
2018-08-22T14:06:34.386Z,28.60
2018-08-22T14:09:04.194Z,27.52
2018-08-22T14:11:33.594Z,27.49
2018-08-22T14:14:03.019Z,26.87
2018-08-22T14:16:32.415Z,29.60
2018-08-22T14:19:01.822Z,32.11
2018-08-22T14:21:31.202Z,30.09
2018-08-22T14:24:00.639Z,29.62
2018-08-22T14:26:30.209Z,32.43
2018-08-22T14:28:59.614Z,33.78
2018-08-22T14:31:29.007Z,33.99
2018-08-22T14:33:58.491Z,33.48
2018-08-22T14:36:27.903Z,33.92
2018-08-22T14:38:57.346Z,33.23
2018-08-22T14:41:26.714Z,32.54
2018-08-22T14:43:56.134Z,30.76
2018-08-22T14:46:25.542Z,32.81
2018-08-22T14:48:54.915Z,33.89
2018-08-22T14:51:24.315Z,33.13
2018-08-22T14:53:53.698Z,33.25
2018-08-22T14:56:23.163Z,33.96
2018-08-22T14:58:52.454Z,34.22
2018-08-22T15:01:21.851Z,34.99
2018-08-22T15:03:51.214Z,34.21
2018-08-22T15:06:20.690Z,34.44
2018-08-22T15:08:51.298Z,35.85
2018-08-22T15:11:20.709Z,34.00
2018-08-22T15:13:50.074Z,34.86
2018-08-22T15:16:19.491Z,36.00
2018-08-22T15:18:48.874Z,36.17
2018-08-22T15:21:18.250Z,36.88
2018-08-22T15:23:47.630Z,34.55
2018-08-22T15:26:17.002Z,36.53
2018-08-22T15:28:46.378Z,36.11
2018-08-22T15:31:15.802Z,32.66
2018-08-22T15:33:45.706Z,33.90
2018-08-22T15:36:15.437Z,34.71
2018-08-22T15:38:44.809Z,34.06
2018-08-22T15:41:14.249Z,33.52
2018-08-22T15:43:43.666Z,33.38
2018-08-22T15:46:13.065Z,32.60
2018-08-22T15:48:42.442Z,31.19
2018-08-22T15:51:11.931Z,30.74
2018-08-22T15:53:41.324Z,29.75
2018-08-22T15:56:10.738Z,29.76
2018-08-22T15:58:40.200Z,29.86
2018-08-22T16:01:09.629Z,29.92
2018-08-22T16:03:38.996Z,31.37
2018-08-22T16:06:08.392Z,32.59
2018-08-22T16:08:37.794Z,34.09
2018-08-22T16:11:07.370Z,33.26
2018-08-22T16:13:38.001Z,33.87
2018-08-22T16:16:07.447Z,33.87
2018-08-22T16:18:36.898Z,33.14
2018-08-22T16:21:07.814Z,33.63
2018-08-22T16:23:38.010Z,33.58
2018-08-22T16:26:07.397Z,34.28
2018-08-22T16:28:52.570Z,34.02
2018-08-22T16:31:23.602Z,32.29
2018-08-22T16:33:52.978Z,31.90
2018-08-22T16:36:27.583Z,30.00
2018-08-22T16:38:56.994Z,28.65
2018-08-22T16:41:26.374Z,29.18
2018-08-22T16:43:55.746Z,28.66
2018-08-22T16:46:25.178Z,27.30
2018-08-22T16:48:55.597Z,29.44
2018-08-22T16:51:25.270Z,26.23
2018-08-22T16:54:00.920Z,26.53
2018-08-22T16:56:33.190Z,25.90
2018-08-22T16:59:09.758Z,27.50
2018-08-22T17:01:42.561Z,27.54
2018-08-22T17:04:11.906Z,28.64
2018-08-22T17:06:41.273Z,29.05
2018-08-22T17:09:11.562Z,30.08
2018-08-22T17:14:01.866Z,30.29
2018-08-22T17:16:31.456Z,30.08
2018-08-22T17:19:00.858Z,30.46
2018-08-22T17:21:30.242Z,30.68
2018-08-22T17:23:59.635Z,30.96
2018-08-22T17:26:29.030Z,29.91
2018-08-22T17:28:59.622Z,29.29
2018-08-22T17:31:30.186Z,30.49
2018-08-22T17:34:01.883Z,29.40
2018-08-22T17:36:31.317Z,29.25
2018-08-22T17:39:01.617Z,30.00
2018-08-22T17:41:31.473Z,29.93
2018-08-22T17:44:08.423Z,30.36
2018-08-22T17:46:40.671Z,30.44
2018-08-22T17:49:10.040Z,31.01
2018-08-22T17:51:56.824Z,31.50
2018-08-22T17:54:26.629Z,31.24
2018-08-22T17:57:14.141Z,32.27
2018-08-22T17:59:44.474Z,33.84
2018-08-22T18:02:13.942Z,35.20
2018-08-22T18:04:59.978Z,35.77
2018-08-22T18:07:29.409Z,38.01
2018-08-22T18:09:58.862Z,37.99
2018-08-22T18:12:28.874Z,38.71
2018-08-22T18:15:00.997Z,40.87
2018-08-22T18:17:30.362Z,41.24
2018-08-22T18:19:59.955Z,42.87
2018-08-22T18:22:37.180Z,43.82
2018-08-22T18:25:07.422Z,44.90
2018-08-22T18:27:36.834Z,45.53
2018-08-22T18:30:09.460Z,45.48
2018-08-22T18:32:38.973Z,46.17
2018-08-22T18:35:10.285Z,46.64
2018-08-22T18:37:41.444Z,48.33
2018-08-22T18:40:22.036Z,47.63
2018-08-22T18:43:05.233Z,48.82
2018-08-22T18:45:35.609Z,48.94
2018-08-22T18:48:06.796Z,49.11
2018-08-22T18:50:36.989Z,49.05
2018-08-22T18:53:07.490Z,50.27
2018-08-22T18:55:37.983Z,49.69
2018-08-22T18:58:08.665Z,49.12
2018-08-22T19:00:39.577Z,50.89
2018-08-22T19:03:10.627Z,52.19
2018-08-22T19:05:40.860Z,52.38
2018-08-22T19:08:17.117Z,54.02
2018-08-22T19:10:50.390Z,52.97
2018-08-22T19:13:22.809Z,54.92
2018-08-22T19:15:57.951Z,53.23
2018-08-22T19:18:28.535Z,53.88
2018-08-22T19:21:01.957Z,54.77
2018-08-22T19:23:33.224Z,53.23
2018-08-22T19:26:06.366Z,53.56
2018-08-22T19:29:07.762Z,53.44
2018-08-22T19:31:43.977Z,54.16
2018-08-22T19:34:15.254Z,55.03
2018-08-22T19:36:47.226Z,56.61
2018-08-22T19:39:19.144Z,56.49
2018-08-22T19:41:50.455Z,56.87
2018-08-22T19:44:22.156Z,57.07
2018-08-22T19:46:54.584Z,56.34
2018-08-22T19:49:25.911Z,57.38
2018-08-22T19:51:57.493Z,55.81
2018-08-22T19:54:28.876Z,57.87
2018-08-22T19:56:59.791Z,58.94
2018-08-22T19:59:30.637Z,59.72
2018-08-22T20:02:00.915Z,59.06
2018-08-22T20:04:32.693Z,57.83
2018-08-22T20:07:04.561Z,57.85
2018-08-22T20:09:40.225Z,59.35
2018-08-22T20:12:11.312Z,58.97
2018-08-22T20:14:51.877Z,58.92
2018-08-22T20:17:28.929Z,58.57
2018-08-22T20:20:00.538Z,59.03
2018-08-22T20:22:36.256Z,57.71
2018-08-22T20:25:08.892Z,59.68
2018-08-22T20:27:39.984Z,60.05
2018-08-22T20:30:14.951Z,59.86
2018-08-22T20:33:01.208Z,59.88
2018-08-22T20:38:22.997Z,60.99
2018-08-22T20:40:57.771Z,62.03
2018-08-22T20:43:29.481Z,63.34
2018-08-22T20:45:59.850Z,63.67
2018-08-22T20:48:31.314Z,63.75
2018-08-22T20:51:01.611Z,64.14
2018-08-22T20:53:33.197Z,63.86
2018-08-22T20:56:03.551Z,65.19
2018-08-22T20:58:34.206Z,64.20
2018-08-22T21:01:04.784Z,64.28
2018-08-22T21:03:35.285Z,64.94
2018-08-22T21:06:10.016Z,65.32
2018-08-22T21:08:40.834Z,65.88
2018-08-22T21:11:11.947Z,66.78
2018-08-22T21:13:43.036Z,64.74
2018-08-22T21:16:13.622Z,67.28
2018-08-22T21:18:44.288Z,65.85
2018-08-22T21:21:22.200Z,67.18
2018-08-22T21:23:58.781Z,66.76
2018-08-22T21:30:15.329Z,67.12
2018-08-22T21:32:46.443Z,66.84
2018-08-22T21:35:24.160Z,66.74
2018-08-22T21:37:59.307Z,67.71
2018-08-22T21:40:29.879Z,68.59
2018-08-22T21:43:00.569Z,68.15
2018-08-22T21:45:31.131Z,69.39
2018-08-22T21:48:16.138Z,69.20
2018-08-22T21:50:48.349Z,69.26
2018-08-22T21:53:22.192Z,69.76
2018-08-22T21:55:55.698Z,69.33
2018-08-22T21:58:28.663Z,69.69
2018-08-22T22:01:04.025Z,71.13
2018-08-22T22:03:37.678Z,71.01
2018-08-22T22:06:11.671Z,71.34
2018-08-22T22:08:48.948Z,70.43
2018-08-22T22:11:22.448Z,70.36
2018-08-22T22:13:55.687Z,71.81
2018-08-22T22:16:31.634Z,71.87
2018-08-22T22:19:02.831Z,72.64
2018-08-22T22:21:32.467Z,72.85
2018-08-22T22:24:02.968Z,72.43
2018-08-22T22:26:33.813Z,71.26
2018-08-22T22:29:04.316Z,71.82
2018-08-22T22:31:35.094Z,72.59
2018-08-22T22:34:05.927Z,72.42
2018-08-22T22:36:38.609Z,72.39
2018-08-22T22:40:15.510Z,72.86
2018-08-22T22:42:45.583Z,73.34
2018-08-22T22:45:17.667Z,74.45
2018-08-22T22:47:48.878Z,74.26
2018-08-22T22:50:19.371Z,73.96
2018-08-22T22:52:50.314Z,74.25
2018-08-22T22:55:20.940Z,73.79
2018-08-22T22:57:51.399Z,74.50
2018-08-22T23:00:22.089Z,74.24
2018-08-22T23:02:57.898Z,74.87
2018-08-22T23:05:32.140Z,73.85
2018-08-22T23:08:04.211Z,73.62
2018-08-22T23:10:34.927Z,73.94
2018-08-22T23:13:06.047Z,74.31
2018-08-22T23:15:37.063Z,74.02
2018-08-22T23:18:08.300Z,73.84
2018-08-22T23:20:40.352Z,74.79
2018-08-22T23:23:28.634Z,74.47
2018-08-22T23:26:06.840Z,75.02
2018-08-22T23:28:38.281Z,75.14
2018-08-22T23:31:08.969Z,75.26
2018-08-22T23:33:39.466Z,75.04
2018-08-22T23:36:10.161Z,74.82
2018-08-22T23:38:40.555Z,75.47
2018-08-22T23:41:10.991Z,76.02
2018-08-22T23:43:46.433Z,75.45
2018-08-22T23:46:17.629Z,76.16
2018-08-22T23:48:54.705Z,76.85
2018-08-22T23:51:24.975Z,76.37
2018-08-22T23:54:00.744Z,76.57
2018-08-22T23:56:32.011Z,77.14
2018-08-22T23:59:02.195Z,77.12
